Accueil
METAR-TAF:

METAR-TAF

Aéroports :

Liège, Belgique

Aéroport de Liège

latitude: 50-39N, longitude: 005-27E, altitude: 186 m

Observation

Le bulletin a été fait il y a 39 minutes, à 16:50 UTC
Vent 16 kt de ouest/sud-ouest
Température 21°C
Humidité 56%
Pression 1013 hPa
Visibilité 10 km ou plus
Quelques nuages à une hauteur de 3900 ft

METAR: EBLG 251650Z 25016KT 9999 FEW039 21/12 Q1013 NOSIG

Heure: 19:29 (17:29 UTC)

Prévision

Le bulletin a été fait il y a 6 heures et 25 minutes, à 11:04 UTC
Prévision valable du 25 à 12 UTC au 26 à 18 UTC
Vent 12 kt de ouest
Visibilité 10 km ou plus
Nuages épars à une hauteur de 3000 ft
Temporairement
du 26 à 00 UTC au 26 à 07 UTC
Nuages fragmentés à une hauteur de 1400 ft
Evoluant progressivement
du 26 à 09 UTC au 26 à 11 UTC
Vent 6 kt de nord/nord-ouest

TAF: EBLG 251104Z 2512/2618 26012KT 9999 SCT030 TEMPO 2600/2607 BKN014 BECMG 2609/2611 33006KT

Observations et prévisions météorologiques de plus de 4000 aéroports (messages METAR et TAF).

Les stations disponibles sont représentées par des disques jaunes et rouges sur la carte.

Passer la souris dessus pour voir le nom de la station.

Cliquer dessus pour voir les observations et prévisions météorologiques.

Pour changer de carte: cliquez sur les boutons verts avec une croix noire pour zoomer, sur le bouton vert avec un tiret pour effectuer un zoom arrière, ou sur les flèches vertes pour les cartes adjacentes.


METAR-TAF: